sensor_id;sensor_type;location;lat;lon;timestamp;P1;durP1;ratioP1;P2;durP2;ratioP2
16401;SDS011;8310;44.626;11.176;2022-11-15T00:01:06;48.25;;;27.15;;
16401;SDS011;8310;44.626;11.176;2022-11-15T00:03:34;49.80;;;28.13;;
16401;SDS011;8310;44.626;11.176;2022-11-15T00:06:03;45.20;;;26.33;;
16401;SDS011;8310;44.626;11.176;2022-11-15T00:08:31;47.97;;;26.55;;
16401;SDS011;8310;44.626;11.176;2022-11-15T00:10:59;52.65;;;28.30;;
16401;SDS011;8310;44.626;11.176;2022-11-15T00:13:29;46.08;;;25.65;;
16401;SDS011;8310;44.626;11.176;2022-11-15T00:15:56;45.58;;;27.70;;
16401;SDS011;8310;44.626;11.176;2022-11-15T00:18:25;53.38;;;28.75;;
16401;SDS011;8310;44.626;11.176;2022-11-15T00:20:53;41.65;;;26.02;;
16401;SDS011;8310;44.626;11.176;2022-11-15T00:23:23;43.13;;;26.33;;
16401;SDS011;8310;44.626;11.176;2022-11-15T00:25:57;41.78;;;24.60;;
16401;SDS011;8310;44.626;11.176;2022-11-15T00:28:25;40.97;;;25.02;;
16401;SDS011;8310;44.626;11.176;2022-11-15T00:30:53;39.08;;;24.05;;
16401;SDS011;8310;44.626;11.176;2022-11-15T00:33:21;39.95;;;24.98;;
16401;SDS011;8310;44.626;11.176;2022-11-15T00:35:49;42.13;;;27.08;;
16401;SDS011;8310;44.626;11.176;2022-11-15T00:38:17;41.28;;;24.70;;
16401;SDS011;8310;44.626;11.176;2022-11-15T00:40:46;40.83;;;25.10;;
16401;SDS011;8310;44.626;11.176;2022-11-15T00:43:14;37.85;;;23.83;;
16401;SDS011;8310;44.626;11.176;2022-11-15T00:45:49;34.78;;;21.50;;
16401;SDS011;8310;44.626;11.176;2022-11-15T00:48:18;36.05;;;23.38;;
16401;SDS011;8310;44.626;11.176;2022-11-15T00:50:46;35.88;;;21.55;;
16401;SDS011;8310;44.626;11.176;2022-11-15T00:53:15;35.38;;;21.95;;
16401;SDS011;8310;44.626;11.176;2022-11-15T00:55:42;31.63;;;20.65;;
16401;SDS011;8310;44.626;11.176;2022-11-15T00:58:12;34.45;;;21.02;;
16401;SDS011;8310;44.626;11.176;2022-11-15T01:00:39;31.73;;;22.13;;
16401;SDS011;8310;44.626;11.176;2022-11-15T01:03:07;31.38;;;20.70;;
16401;SDS011;8310;44.626;11.176;2022-11-15T01:05:36;29.90;;;21.60;;
16401;SDS011;8310;44.626;11.176;2022-11-15T01:08:03;30.25;;;20.77;;
16401;SDS011;8310;44.626;11.176;2022-11-15T01:10:33;29.77;;;20.20;;
16401;SDS011;8310;44.626;11.176;2022-11-15T01:13:00;30.52;;;20.85;;
16401;SDS011;8310;44.626;11.176;2022-11-15T01:15:30;30.35;;;20.17;;
16401;SDS011;8310;44.626;11.176;2022-11-15T01:17:58;28.35;;;19.15;;
16401;SDS011;8310;44.626;11.176;2022-11-15T01:20:25;30.92;;;19.65;;
16401;SDS011;8310;44.626;11.176;2022-11-15T01:22:52;30.63;;;20.55;;
16401;SDS011;8310;44.626;11.176;2022-11-15T01:25:21;27.52;;;18.27;;
16401;SDS011;8310;44.626;11.176;2022-11-15T01:27:48;34.25;;;21.25;;
16401;SDS011;8310;44.626;11.176;2022-11-15T01:30:16;29.02;;;19.02;;
16401;SDS011;8310;44.626;11.176;2022-11-15T01:32:46;31.30;;;20.13;;
16401;SDS011;8310;44.626;11.176;2022-11-15T01:35:14;28.48;;;19.45;;
16401;SDS011;8310;44.626;11.176;2022-11-15T01:37:41;28.65;;;18.75;;
16401;SDS011;8310;44.626;11.176;2022-11-15T01:40:10;30.05;;;18.80;;
16401;SDS011;8310;44.626;11.176;2022-11-15T01:42:38;33.72;;;19.33;;
16401;SDS011;8310;44.626;11.176;2022-11-15T01:45:07;31.52;;;19.92;;
16401;SDS011;8310;44.626;11.176;2022-11-15T01:47:40;28.88;;;18.65;;
16401;SDS011;8310;44.626;11.176;2022-11-15T01:50:13;30.35;;;19.27;;
16401;SDS011;8310;44.626;11.176;2022-11-15T01:52:44;29.67;;;18.42;;
16401;SDS011;8310;44.626;11.176;2022-11-15T01:55:13;27.75;;;17.38;;
16401;SDS011;8310;44.626;11.176;2022-11-15T01:57:45;29.75;;;18.55;;
16401;SDS011;8310;44.626;11.176;2022-11-15T02:00:16;29.90;;;19.48;;
16401;SDS011;8310;44.626;11.176;2022-11-15T02:02:44;27.92;;;18.55;;
16401;SDS011;8310;44.626;11.176;2022-11-15T02:05:13;32.83;;;19.63;;
16401;SDS011;8310;44.626;11.176;2022-11-15T02:07:41;28.17;;;17.77;;
16401;SDS011;8310;44.626;11.176;2022-11-15T02:10:10;32.35;;;19.17;;
16401;SDS011;8310;44.626;11.176;2022-11-15T02:12:39;28.13;;;18.40;;
16401;SDS011;8310;44.626;11.176;2022-11-15T02:15:08;25.20;;;17.98;;
16401;SDS011;8310;44.626;11.176;2022-11-15T02:17:49;26.63;;;18.95;;
16401;SDS011;8310;44.626;11.176;2022-11-15T02:26:28;28.20;;;19.58;;
16401;SDS011;8310;44.626;11.176;2022-11-15T02:29:20;33.88;;;20.42;;
16401;SDS011;8310;44.626;11.176;2022-11-15T02:31:57;30.67;;;19.83;;
16401;SDS011;8310;44.626;11.176;2022-11-15T02:34:32;30.75;;;18.35;;
16401;SDS011;8310;44.626;11.176;2022-11-15T02:37:11;31.85;;;19.48;;
16401;SDS011;8310;44.626;11.176;2022-11-15T02:39:46;31.00;;;18.45;;
16401;SDS011;8310;44.626;11.176;2022-11-15T02:42:19;29.75;;;19.27;;
16401;SDS011;8310;44.626;11.176;2022-11-15T02:45:07;34.47;;;20.20;;
16401;SDS011;8310;44.626;11.176;2022-11-15T02:47:41;31.58;;;19.83;;
16401;SDS011;8310;44.626;11.176;2022-11-15T02:50:11;33.00;;;20.65;;
16401;SDS011;8310;44.626;11.176;2022-11-15T02:52:44;33.40;;;20.33;;
16401;SDS011;8310;44.626;11.176;2022-11-15T02:55:26;35.78;;;20.20;;
16401;SDS011;8310;44.626;11.176;2022-11-15T02:57:58;31.38;;;18.63;;
16401;SDS011;8310;44.626;11.176;2022-11-15T03:00:42;31.40;;;18.85;;
16401;SDS011;8310;44.626;11.176;2022-11-15T03:03:33;28.95;;;17.70;;
16401;SDS011;8310;44.626;11.176;2022-11-15T03:06:15;30.90;;;18.40;;
16401;SDS011;8310;44.626;11.176;2022-11-15T03:08:53;29.55;;;18.65;;
16401;SDS011;8310;44.626;11.176;2022-11-15T03:11:26;31.55;;;18.92;;
16401;SDS011;8310;44.626;11.176;2022-11-15T03:13:58;33.33;;;19.55;;
16401;SDS011;8310;44.626;11.176;2022-11-15T03:16:29;34.88;;;20.75;;
16401;SDS011;8310;44.626;11.176;2022-11-15T03:19:04;32.30;;;20.48;;
16401;SDS011;8310;44.626;11.176;2022-11-15T03:21:36;35.95;;;20.65;;
16401;SDS011;8310;44.626;11.176;2022-11-15T03:24:06;33.47;;;21.13;;
16401;SDS011;8310;44.626;11.176;2022-11-15T03:26:35;29.90;;;19.40;;
16401;SDS011;8310;44.626;11.176;2022-11-15T03:29:06;32.53;;;20.58;;
16401;SDS011;8310;44.626;11.176;2022-11-15T03:31:39;28.30;;;18.10;;
16401;SDS011;8310;44.626;11.176;2022-11-15T03:34:17;27.60;;;17.38;;
16401;SDS011;8310;44.626;11.176;2022-11-15T03:36:49;24.88;;;16.75;;
16401;SDS011;8310;44.626;11.176;2022-11-15T03:39:18;22.73;;;15.65;;
16401;SDS011;8310;44.626;11.176;2022-11-15T03:41:48;30.17;;;18.70;;
16401;SDS011;8310;44.626;11.176;2022-11-15T03:44:20;29.60;;;19.27;;
16401;SDS011;8310;44.626;11.176;2022-11-15T03:46:57;29.00;;;18.10;;
16401;SDS011;8310;44.626;11.176;2022-11-15T03:49:31;27.25;;;18.25;;
16401;SDS011;8310;44.626;11.176;2022-11-15T03:52:01;27.30;;;17.55;;
16401;SDS011;8310;44.626;11.176;2022-11-15T03:54:30;27.08;;;18.15;;
16401;SDS011;8310;44.626;11.176;2022-11-15T03:56:58;28.63;;;17.77;;
16401;SDS011;8310;44.626;11.176;2022-11-15T03:59:26;28.65;;;17.58;;
16401;SDS011;8310;44.626;11.176;2022-11-15T04:01:54;28.85;;;17.33;;
16401;SDS011;8310;44.626;11.176;2022-11-15T04:04:21;28.42;;;18.40;;
16401;SDS011;8310;44.626;11.176;2022-11-15T04:06:50;27.80;;;17.55;;
16401;SDS011;8310;44.626;11.176;2022-11-15T04:09:18;29.58;;;18.27;;
16401;SDS011;8310;44.626;11.176;2022-11-15T04:11:45;28.55;;;16.95;;
16401;SDS011;8310;44.626;11.176;2022-11-15T04:14:13;27.55;;;17.98;;
16401;SDS011;8310;44.626;11.176;2022-11-15T04:16:41;26.70;;;18.55;;
16401;SDS011;8310;44.626;11.176;2022-11-15T04:19:08;27.60;;;17.70;;
16401;SDS011;8310;44.626;11.176;2022-11-15T04:21:54;24.92;;;17.70;;
16401;SDS011;8310;44.626;11.176;2022-11-15T04:24:41;23.48;;;16.70;;
16401;SDS011;8310;44.626;11.176;2022-11-15T04:27:08;23.55;;;15.68;;
16401;SDS011;8310;44.626;11.176;2022-11-15T04:29:38;29.25;;;17.45;;
16401;SDS011;8310;44.626;11.176;2022-11-15T04:32:06;29.52;;;17.77;;
16401;SDS011;8310;44.626;11.176;2022-11-15T04:34:34;27.80;;;17.23;;
16401;SDS011;8310;44.626;11.176;2022-11-15T04:37:04;25.63;;;16.42;;
16401;SDS011;8310;44.626;11.176;2022-11-15T04:39:38;26.27;;;17.10;;
16401;SDS011;8310;44.626;11.176;2022-11-15T04:42:06;24.08;;;17.23;;
16401;SDS011;8310;44.626;11.176;2022-11-15T04:44:34;24.70;;;16.23;;
16401;SDS011;8310;44.626;11.176;2022-11-15T04:47:03;24.45;;;16.98;;
16401;SDS011;8310;44.626;11.176;2022-11-15T04:49:31;24.55;;;17.23;;
16401;SDS011;8310;44.626;11.176;2022-11-15T04:51:59;27.38;;;15.77;;
16401;SDS011;8310;44.626;11.176;2022-11-15T04:54:28;26.92;;;17.33;;
16401;SDS011;8310;44.626;11.176;2022-11-15T04:56:56;24.25;;;16.10;;
16401;SDS011;8310;44.626;11.176;2022-11-15T04:59:23;23.33;;;16.45;;
16401;SDS011;8310;44.626;11.176;2022-11-15T05:01:52;25.42;;;16.45;;
16401;SDS011;8310;44.626;11.176;2022-11-15T05:04:20;22.20;;;15.30;;
16401;SDS011;8310;44.626;11.176;2022-11-15T05:06:47;23.38;;;15.05;;
16401;SDS011;8310;44.626;11.176;2022-11-15T05:09:15;22.08;;;13.82;;
16401;SDS011;8310;44.626;11.176;2022-11-15T05:11:45;22.48;;;13.75;;
16401;SDS011;8310;44.626;11.176;2022-11-15T05:14:12;20.35;;;14.23;;
16401;SDS011;8310;44.626;11.176;2022-11-15T05:16:40;21.13;;;14.27;;
16401;SDS011;8310;44.626;11.176;2022-11-15T05:19:08;20.63;;;14.07;;
16401;SDS011;8310;44.626;11.176;2022-11-15T05:21:35;23.75;;;15.68;;
16401;SDS011;8310;44.626;11.176;2022-11-15T05:24:03;19.42;;;13.90;;
16401;SDS011;8310;44.626;11.176;2022-11-15T05:26:32;19.33;;;13.77;;
16401;SDS011;8310;44.626;11.176;2022-11-15T05:29:01;19.88;;;14.18;;
16401;SDS011;8310;44.626;11.176;2022-11-15T05:31:29;22.88;;;14.82;;
16401;SDS011;8310;44.626;11.176;2022-11-15T05:33:57;21.65;;;14.52;;
16401;SDS011;8310;44.626;11.176;2022-11-15T05:36:28;20.33;;;14.52;;
16401;SDS011;8310;44.626;11.176;2022-11-15T05:38:58;22.38;;;15.07;;
16401;SDS011;8310;44.626;11.176;2022-11-15T05:41:27;19.38;;;12.25;;
16401;SDS011;8310;44.626;11.176;2022-11-15T05:44:01;19.23;;;13.05;;
16401;SDS011;8310;44.626;11.176;2022-11-15T05:46:32;18.55;;;12.80;;
16401;SDS011;8310;44.626;11.176;2022-11-15T05:49:00;20.48;;;13.95;;
16401;SDS011;8310;44.626;11.176;2022-11-15T05:51:28;21.38;;;13.70;;
16401;SDS011;8310;44.626;11.176;2022-11-15T05:53:57;22.23;;;14.35;;
16401;SDS011;8310;44.626;11.176;2022-11-15T05:56:26;21.15;;;13.98;;
16401;SDS011;8310;44.626;11.176;2022-11-15T05:58:55;19.05;;;13.50;;
16401;SDS011;8310;44.626;11.176;2022-11-15T06:01:25;20.83;;;13.43;;
16401;SDS011;8310;44.626;11.176;2022-11-15T06:03:53;21.85;;;14.63;;
16401;SDS011;8310;44.626;11.176;2022-11-15T06:06:21;22.33;;;14.57;;
16401;SDS011;8310;44.626;11.176;2022-11-15T06:08:49;21.75;;;14.25;;
16401;SDS011;8310;44.626;11.176;2022-11-15T06:11:17;24.10;;;14.85;;
16401;SDS011;8310;44.626;11.176;2022-11-15T06:13:45;21.77;;;14.25;;
16401;SDS011;8310;44.626;11.176;2022-11-15T06:16:13;21.63;;;13.68;;
16401;SDS011;8310;44.626;11.176;2022-11-15T06:18:42;22.27;;;14.10;;
16401;SDS011;8310;44.626;11.176;2022-11-15T06:21:09;22.38;;;13.50;;
16401;SDS011;8310;44.626;11.176;2022-11-15T06:23:37;19.80;;;14.23;;
16401;SDS011;8310;44.626;11.176;2022-11-15T06:26:05;20.55;;;14.88;;
16401;SDS011;8310;44.626;11.176;2022-11-15T06:28:34;17.95;;;12.85;;
16401;SDS011;8310;44.626;11.176;2022-11-15T06:31:05;20.02;;;13.48;;
16401;SDS011;8310;44.626;11.176;2022-11-15T06:33:34;20.40;;;13.85;;
16401;SDS011;8310;44.626;11.176;2022-11-15T06:36:03;20.77;;;13.93;;
16401;SDS011;8310;44.626;11.176;2022-11-15T06:38:32;21.13;;;13.50;;
16401;SDS011;8310;44.626;11.176;2022-11-15T06:41:03;23.20;;;15.02;;
16401;SDS011;8310;44.626;11.176;2022-11-15T06:43:31;22.13;;;13.85;;
16401;SDS011;8310;44.626;11.176;2022-11-15T06:45:59;19.65;;;13.75;;
16401;SDS011;8310;44.626;11.176;2022-11-15T06:48:27;21.98;;;14.40;;
16401;SDS011;8310;44.626;11.176;2022-11-15T06:50:56;25.27;;;14.73;;
16401;SDS011;8310;44.626;11.176;2022-11-15T06:53:26;22.92;;;14.77;;
16401;SDS011;8310;44.626;11.176;2022-11-15T06:55:57;21.55;;;13.95;;
16401;SDS011;8310;44.626;11.176;2022-11-15T06:58:25;22.05;;;14.73;;
16401;SDS011;8310;44.626;11.176;2022-11-15T07:00:53;20.80;;;14.43;;
16401;SDS011;8310;44.626;11.176;2022-11-15T07:03:24;22.38;;;13.80;;
16401;SDS011;8310;44.626;11.176;2022-11-15T07:05:52;20.00;;;13.65;;
16401;SDS011;8310;44.626;11.176;2022-11-15T07:08:21;22.42;;;14.00;;
16401;SDS011;8310;44.626;11.176;2022-11-15T07:10:50;21.60;;;14.48;;
16401;SDS011;8310;44.626;11.176;2022-11-15T07:13:18;21.77;;;15.52;;
16401;SDS011;8310;44.626;11.176;2022-11-15T07:15:46;23.45;;;15.93;;
16401;SDS011;8310;44.626;11.176;2022-11-15T07:18:13;21.05;;;14.85;;
16401;SDS011;8310;44.626;11.176;2022-11-15T07:20:41;22.45;;;15.52;;
16401;SDS011;8310;44.626;11.176;2022-11-15T07:23:09;21.50;;;14.27;;
16401;SDS011;8310;44.626;11.176;2022-11-15T07:25:37;25.08;;;15.77;;
16401;SDS011;8310;44.626;11.176;2022-11-15T07:28:06;24.60;;;16.10;;
16401;SDS011;8310;44.626;11.176;2022-11-15T07:30:34;25.33;;;16.63;;
16401;SDS011;8310;44.626;11.176;2022-11-15T07:33:02;26.45;;;15.90;;
16401;SDS011;8310;44.626;11.176;2022-11-15T07:35:30;24.13;;;16.33;;
16401;SDS011;8310;44.626;11.176;2022-11-15T07:37:58;25.20;;;16.77;;
16401;SDS011;8310;44.626;11.176;2022-11-15T07:40:27;28.80;;;16.98;;
16401;SDS011;8310;44.626;11.176;2022-11-15T07:42:58;26.98;;;15.68;;
16401;SDS011;8310;44.626;11.176;2022-11-15T07:45:29;36.10;;;17.83;;
16401;SDS011;8310;44.626;11.176;2022-11-15T07:47:58;28.50;;;18.25;;
16401;SDS011;8310;44.626;11.176;2022-11-15T07:50:28;24.30;;;16.63;;
16401;SDS011;8310;44.626;11.176;2022-11-15T07:52:56;26.70;;;17.23;;
16401;SDS011;8310;44.626;11.176;2022-11-15T07:55:24;25.90;;;17.58;;
16401;SDS011;8310;44.626;11.176;2022-11-15T07:57:59;26.98;;;17.80;;
16401;SDS011;8310;44.626;11.176;2022-11-15T08:00:29;26.65;;;17.98;;
16401;SDS011;8310;44.626;11.176;2022-11-15T08:03:03;31.50;;;19.48;;
16401;SDS011;8310;44.626;11.176;2022-11-15T08:05:32;30.00;;;18.80;;
16401;SDS011;8310;44.626;11.176;2022-11-15T08:08:01;28.27;;;17.63;;
16401;SDS011;8310;44.626;11.176;2022-11-15T08:10:30;30.55;;;18.60;;
16401;SDS011;8310;44.626;11.176;2022-11-15T08:12:58;29.80;;;18.10;;
16401;SDS011;8310;44.626;11.176;2022-11-15T08:15:26;29.92;;;18.60;;
16401;SDS011;8310;44.626;11.176;2022-11-15T08:18:00;30.70;;;18.67;;
16401;SDS011;8310;44.626;11.176;2022-11-15T08:20:28;35.72;;;19.40;;
16401;SDS011;8310;44.626;11.176;2022-11-15T08:22:56;34.88;;;20.25;;
16401;SDS011;8310;44.626;11.176;2022-11-15T08:25:24;36.15;;;21.98;;
16401;SDS011;8310;44.626;11.176;2022-11-15T08:27:52;40.00;;;21.92;;
16401;SDS011;8310;44.626;11.176;2022-11-15T08:30:20;36.10;;;22.80;;
16401;SDS011;8310;44.626;11.176;2022-11-15T08:32:50;37.70;;;24.58;;
16401;SDS011;8310;44.626;11.176;2022-11-15T08:35:22;36.15;;;23.70;;
16401;SDS011;8310;44.626;11.176;2022-11-15T08:37:51;40.53;;;27.85;;
16401;SDS011;8310;44.626;11.176;2022-11-15T08:40:19;43.13;;;29.55;;
16401;SDS011;8310;44.626;11.176;2022-11-15T08:42:47;44.30;;;28.85;;
16401;SDS011;8310;44.626;11.176;2022-11-15T08:45:15;50.83;;;32.63;;
16401;SDS011;8310;44.626;11.176;2022-11-15T08:47:43;45.55;;;31.83;;
16401;SDS011;8310;44.626;11.176;2022-11-15T08:50:12;50.33;;;32.10;;
16401;SDS011;8310;44.626;11.176;2022-11-15T08:52:39;47.72;;;30.42;;
16401;SDS011;8310;44.626;11.176;2022-11-15T08:55:07;44.40;;;30.63;;
16401;SDS011;8310;44.626;11.176;2022-11-15T08:57:35;46.40;;;31.13;;
16401;SDS011;8310;44.626;11.176;2022-11-15T09:00:03;42.45;;;28.88;;
16401;SDS011;8310;44.626;11.176;2022-11-15T09:02:32;48.10;;;31.42;;
16401;SDS011;8310;44.626;11.176;2022-11-15T09:04:59;46.13;;;30.35;;
16401;SDS011;8310;44.626;11.176;2022-11-15T09:07:28;49.08;;;31.88;;
16401;SDS011;8310;44.626;11.176;2022-11-15T09:09:56;42.97;;;30.02;;
16401;SDS011;8310;44.626;11.176;2022-11-15T09:12:24;43.88;;;27.85;;
16401;SDS011;8310;44.626;11.176;2022-11-15T09:14:52;38.55;;;27.42;;
16401;SDS011;8310;44.626;11.176;2022-11-15T09:17:19;61.97;;;38.97;;
16401;SDS011;8310;44.626;11.176;2022-11-15T09:19:47;90.18;;;48.10;;
16401;SDS011;8310;44.626;11.176;2022-11-15T09:22:15;83.45;;;46.80;;
16401;SDS011;8310;44.626;11.176;2022-11-15T09:24:45;50.67;;;31.50;;
16401;SDS011;8310;44.626;11.176;2022-11-15T09:27:12;56.88;;;33.28;;
16401;SDS011;8310;44.626;11.176;2022-11-15T09:29:43;46.55;;;31.38;;
16401;SDS011;8310;44.626;11.176;2022-11-15T09:32:11;42.03;;;27.27;;
16401;SDS011;8310;44.626;11.176;2022-11-15T09:34:38;43.10;;;27.80;;
16401;SDS011;8310;44.626;11.176;2022-11-15T09:37:05;43.22;;;26.15;;
16401;SDS011;8310;44.626;11.176;2022-11-15T09:39:34;38.67;;;24.92;;
16401;SDS011;8310;44.626;11.176;2022-11-15T09:42:10;40.88;;;26.65;;
16401;SDS011;8310;44.626;11.176;2022-11-15T09:44:54;37.80;;;23.77;;
16401;SDS011;8310;44.626;11.176;2022-11-15T09:47:35;35.88;;;24.33;;
16401;SDS011;8310;44.626;11.176;2022-11-15T09:50:17;38.67;;;23.80;;
16401;SDS011;8310;44.626;11.176;2022-11-15T09:52:54;36.25;;;23.25;;
16401;SDS011;8310;44.626;11.176;2022-11-15T09:55:21;36.30;;;23.23;;
16401;SDS011;8310;44.626;11.176;2022-11-15T09:58:00;36.10;;;24.50;;
16401;SDS011;8310;44.626;11.176;2022-11-15T10:00:35;36.47;;;24.45;;
16401;SDS011;8310;44.626;11.176;2022-11-15T10:03:11;37.53;;;24.55;;
16401;SDS011;8310;44.626;11.176;2022-11-15T10:05:41;42.78;;;25.08;;
16401;SDS011;8310;44.626;11.176;2022-11-15T10:08:13;38.47;;;25.05;;
16401;SDS011;8310;44.626;11.176;2022-11-15T10:10:55;35.40;;;22.90;;
16401;SDS011;8310;44.626;11.176;2022-11-15T10:13:26;36.20;;;22.65;;
16401;SDS011;8310;44.626;11.176;2022-11-15T10:15:59;35.97;;;22.90;;
16401;SDS011;8310;44.626;11.176;2022-11-15T10:18:31;37.50;;;23.17;;
16401;SDS011;8310;44.626;11.176;2022-11-15T10:21:09;38.83;;;24.67;;
16401;SDS011;8310;44.626;11.176;2022-11-15T10:23:44;39.88;;;26.05;;
16401;SDS011;8310;44.626;11.176;2022-11-15T10:26:16;37.35;;;23.63;;
16401;SDS011;8310;44.626;11.176;2022-11-15T10:28:45;38.58;;;25.30;;
16401;SDS011;8310;44.626;11.176;2022-11-15T10:31:21;41.95;;;25.52;;
16401;SDS011;8310;44.626;11.176;2022-11-15T10:33:50;40.78;;;25.80;;
16401;SDS011;8310;44.626;11.176;2022-11-15T10:36:25;39.85;;;25.17;;
16401;SDS011;8310;44.626;11.176;2022-11-15T10:38:54;43.67;;;26.02;;
16401;SDS011;8310;44.626;11.176;2022-11-15T10:41:30;43.25;;;26.00;;
16401;SDS011;8310;44.626;11.176;2022-11-15T10:44:11;42.17;;;26.77;;
16401;SDS011;8310;44.626;11.176;2022-11-15T10:50:00;45.65;;;25.73;;
16401;SDS011;8310;44.626;11.176;2022-11-15T10:52:30;40.78;;;26.10;;
16401;SDS011;8310;44.626;11.176;2022-11-15T10:55:01;47.03;;;26.98;;
16401;SDS011;8310;44.626;11.176;2022-11-15T10:57:32;42.97;;;26.15;;
16401;SDS011;8310;44.626;11.176;2022-11-15T11:00:05;43.30;;;26.52;;
16401;SDS011;8310;44.626;11.176;2022-11-15T11:02:56;43.00;;;26.67;;
16401;SDS011;8310;44.626;11.176;2022-11-15T11:05:29;43.47;;;26.30;;
16401;SDS011;8310;44.626;11.176;2022-11-15T11:07:59;41.35;;;27.80;;
16401;SDS011;8310;44.626;11.176;2022-11-15T11:10:28;47.70;;;29.08;;
16401;SDS011;8310;44.626;11.176;2022-11-15T11:12:55;41.35;;;26.88;;
16401;SDS011;8310;44.626;11.176;2022-11-15T11:15:40;45.47;;;27.60;;
16401;SDS011;8310;44.626;11.176;2022-11-15T11:18:16;44.45;;;26.90;;
16401;SDS011;8310;44.626;11.176;2022-11-15T11:20:53;42.22;;;26.33;;
16401;SDS011;8310;44.626;11.176;2022-11-15T11:23:38;47.13;;;27.30;;
16401;SDS011;8310;44.626;11.176;2022-11-15T11:26:25;48.55;;;27.85;;
16401;SDS011;8310;44.626;11.176;2022-11-15T11:29:02;43.83;;;27.35;;
16401;SDS011;8310;44.626;11.176;2022-11-15T11:31:43;43.05;;;28.10;;
16401;SDS011;8310;44.626;11.176;2022-11-15T11:34:19;43.85;;;27.33;;
16401;SDS011;8310;44.626;11.176;2022-11-15T11:36:59;43.47;;;26.98;;
16401;SDS011;8310;44.626;11.176;2022-11-15T11:39:32;43.03;;;27.35;;
16401;SDS011;8310;44.626;11.176;2022-11-15T11:42:09;48.95;;;28.45;;
16401;SDS011;8310;44.626;11.176;2022-11-15T11:44:46;41.30;;;27.45;;
16401;SDS011;8310;44.626;11.176;2022-11-15T11:47:21;45.10;;;27.40;;
16401;SDS011;8310;44.626;11.176;2022-11-15T11:49:51;44.25;;;27.55;;
16401;SDS011;8310;44.626;11.176;2022-11-15T11:52:23;42.08;;;27.00;;
16401;SDS011;8310;44.626;11.176;2022-11-15T11:54:58;44.45;;;27.83;;
16401;SDS011;8310;44.626;11.176;2022-11-15T11:57:36;42.28;;;27.33;;
16401;SDS011;8310;44.626;11.176;2022-11-15T12:00:16;46.17;;;27.75;;
16401;SDS011;8310;44.626;11.176;2022-11-15T12:02:49;48.05;;;27.70;;
16401;SDS011;8310;44.626;11.176;2022-11-15T12:05:27;44.47;;;28.75;;
16401;SDS011;8310;44.626;11.176;2022-11-15T12:08:03;49.33;;;28.67;;
16401;SDS011;8310;44.626;11.176;2022-11-15T12:10:42;48.33;;;28.90;;
16401;SDS011;8310;44.626;11.176;2022-11-15T12:13:18;46.17;;;28.35;;
16401;SDS011;8310;44.626;11.176;2022-11-15T12:15:56;45.97;;;29.02;;
16401;SDS011;8310;44.626;11.176;2022-11-15T12:18:30;45.67;;;28.45;;
16401;SDS011;8310;44.626;11.176;2022-11-15T12:20:59;43.05;;;27.50;;
16401;SDS011;8310;44.626;11.176;2022-11-15T12:23:31;44.88;;;29.25;;
16401;SDS011;8310;44.626;11.176;2022-11-15T12:26:06;41.47;;;27.85;;
16401;SDS011;8310;44.626;11.176;2022-11-15T12:28:38;43.03;;;27.05;;
16401;SDS011;8310;44.626;11.176;2022-11-15T12:31:10;43.97;;;27.92;;
16401;SDS011;8310;44.626;11.176;2022-11-15T12:33:44;45.65;;;27.77;;
16401;SDS011;8310;44.626;11.176;2022-11-15T12:36:30;40.40;;;26.40;;
16401;SDS011;8310;44.626;11.176;2022-11-15T12:39:03;44.88;;;26.98;;
16401;SDS011;8310;44.626;11.176;2022-11-15T12:41:32;43.53;;;27.02;;
16401;SDS011;8310;44.626;11.176;2022-11-15T12:44:00;40.20;;;25.50;;
16401;SDS011;8310;44.626;11.176;2022-11-15T12:49:51;44.50;;;28.23;;
16401;SDS011;8310;44.626;11.176;2022-11-15T12:52:19;43.83;;;27.27;;
16401;SDS011;8310;44.626;11.176;2022-11-15T12:54:54;44.40;;;27.35;;
16401;SDS011;8310;44.626;11.176;2022-11-15T12:57:28;43.50;;;26.63;;
16401;SDS011;8310;44.626;11.176;2022-11-15T13:03:17;48.67;;;31.77;;
16401;SDS011;8310;44.626;11.176;2022-11-15T13:06:05;44.35;;;27.60;;
16401;SDS011;8310;44.626;11.176;2022-11-15T13:08:47;46.17;;;28.92;;
16401;SDS011;8310;44.626;11.176;2022-11-15T13:14:37;43.33;;;26.95;;
16401;SDS011;8310;44.626;11.176;2022-11-15T13:20:19;43.58;;;26.63;;
16401;SDS011;8310;44.626;11.176;2022-11-15T13:22:59;44.10;;;27.30;;
16401;SDS011;8310;44.626;11.176;2022-11-15T13:28:31;45.45;;;28.65;;
16401;SDS011;8310;44.626;11.176;2022-11-15T13:33:51;47.30;;;28.33;;
16401;SDS011;8310;44.626;11.176;2022-11-15T13:36:22;43.50;;;27.15;;
16401;SDS011;8310;44.626;11.176;2022-11-15T13:38:56;41.65;;;27.00;;
16401;SDS011;8310;44.626;11.176;2022-11-15T13:41:26;43.72;;;27.65;;
16401;SDS011;8310;44.626;11.176;2022-11-15T13:43:55;43.80;;;27.15;;
16401;SDS011;8310;44.626;11.176;2022-11-15T13:46:25;42.05;;;25.58;;
16401;SDS011;8310;44.626;11.176;2022-11-15T13:48:57;39.63;;;25.35;;
16401;SDS011;8310;44.626;11.176;2022-11-15T13:51:30;40.97;;;26.25;;
16401;SDS011;8310;44.626;11.176;2022-11-15T13:54:06;42.67;;;27.27;;
16401;SDS011;8310;44.626;11.176;2022-11-15T13:56:45;41.30;;;26.50;;
16401;SDS011;8310;44.626;11.176;2022-11-15T13:59:16;39.92;;;25.55;;
16401;SDS011;8310;44.626;11.176;2022-11-15T14:01:51;42.25;;;25.33;;
16401;SDS011;8310;44.626;11.176;2022-11-15T14:04:20;40.00;;;26.10;;
16401;SDS011;8310;44.626;11.176;2022-11-15T14:06:51;42.42;;;26.73;;
16401;SDS011;8310;44.626;11.176;2022-11-15T14:09:33;43.85;;;27.70;;
16401;SDS011;8310;44.626;11.176;2022-11-15T14:12:20;44.22;;;27.23;;
16401;SDS011;8310;44.626;11.176;2022-11-15T14:14:51;42.22;;;26.90;;
16401;SDS011;8310;44.626;11.176;2022-11-15T14:17:20;40.03;;;26.92;;
16401;SDS011;8310;44.626;11.176;2022-11-15T14:19:59;42.17;;;26.15;;
16401;SDS011;8310;44.626;11.176;2022-11-15T14:22:27;42.78;;;27.50;;
16401;SDS011;8310;44.626;11.176;2022-11-15T14:28:12;48.83;;;29.90;;
16401;SDS011;8310;44.626;11.176;2022-11-15T14:30:43;43.08;;;28.83;;
16401;SDS011;8310;44.626;11.176;2022-11-15T14:33:19;43.47;;;29.83;;
16401;SDS011;8310;44.626;11.176;2022-11-15T14:35:49;45.13;;;29.98;;
16401;SDS011;8310;44.626;11.176;2022-11-15T14:38:17;46.75;;;29.65;;
16401;SDS011;8310;44.626;11.176;2022-11-15T14:40:46;48.40;;;29.10;;
16401;SDS011;8310;44.626;11.176;2022-11-15T14:43:15;41.78;;;27.02;;
16401;SDS011;8310;44.626;11.176;2022-11-15T14:45:43;41.60;;;26.92;;
16401;SDS011;8310;44.626;11.176;2022-11-15T14:48:10;42.33;;;27.58;;
16401;SDS011;8310;44.626;11.176;2022-11-15T14:50:37;43.40;;;27.90;;
16401;SDS011;8310;44.626;11.176;2022-11-15T14:53:05;41.40;;;27.42;;
16401;SDS011;8310;44.626;11.176;2022-11-15T14:55:33;44.30;;;28.77;;
16401;SDS011;8310;44.626;11.176;2022-11-15T14:58:02;46.20;;;30.20;;
16401;SDS011;8310;44.626;11.176;2022-11-15T15:00:34;43.20;;;29.00;;
16401;SDS011;8310;44.626;11.176;2022-11-15T15:03:03;49.70;;;31.13;;
16401;SDS011;8310;44.626;11.176;2022-11-15T15:05:32;47.97;;;31.27;;
16401;SDS011;8310;44.626;11.176;2022-11-15T15:08:01;50.08;;;31.15;;
16401;SDS011;8310;44.626;11.176;2022-11-15T15:10:30;47.10;;;31.40;;
16401;SDS011;8310;44.626;11.176;2022-11-15T15:12:59;47.03;;;30.70;;
16401;SDS011;8310;44.626;11.176;2022-11-15T15:15:29;47.28;;;30.27;;